createdAt,value
2018-11-13T00:00:38.869Z,940.5
2018-11-13T00:01:38.768Z,940.5
2018-11-13T00:02:38.707Z,940.5
2018-11-13T00:03:39.078Z,938.9
2018-11-13T00:04:38.811Z,940.4
2018-11-13T00:05:38.549Z,940.4
2018-11-13T00:06:38.284Z,940.3
2018-11-13T00:07:38.044Z,940.4
2018-11-13T00:08:37.798Z,940.3
2018-11-13T00:09:37.532Z,940.4
2018-11-13T00:10:37.301Z,940.3
2018-11-13T00:11:37.867Z,940.3
2018-11-13T00:12:37.673Z,940.4
2018-11-13T00:13:38.014Z,940.5
2018-11-13T00:14:37.921Z,940.5
2018-11-13T00:15:37.817Z,940.3
2018-11-13T00:16:37.701Z,940.5
2018-11-13T00:17:37.591Z,940.4
2018-11-13T00:18:37.552Z,940.3
2018-11-13T00:19:37.455Z,940.4
2018-11-13T00:20:37.375Z,940.5
2018-11-13T00:21:37.271Z,940.4
2018-11-13T00:22:37.161Z,940.4
2018-11-13T00:23:37.565Z,940.3
2018-11-13T00:24:37.497Z,940.4
2018-11-13T00:25:37.388Z,940.4
2018-11-13T00:26:37.284Z,940.4
2018-11-13T00:27:38.214Z,940.4
2018-11-13T00:28:38.219Z,940
2018-11-13T00:29:38.114Z,940.2
2018-11-13T00:30:38.016Z,940.3
2018-11-13T00:31:37.960Z,940.5
2018-11-13T00:32:37.841Z,940.2
2018-11-13T00:33:38.213Z,940.4
2018-11-13T00:34:38.134Z,940.3
2018-11-13T00:35:38.016Z,940.4
2018-11-13T00:36:37.916Z,940.3
2018-11-13T00:37:37.822Z,940.4
2018-11-13T00:38:37.721Z,940.3
2018-11-13T00:39:37.629Z,940.4
2018-11-13T00:40:37.519Z,940.3
2018-11-13T00:41:37.423Z,940.3
2018-11-13T00:42:37.316Z,940.3
2018-11-13T00:43:37.625Z,940.3
2018-11-13T00:44:37.545Z,940.3
2018-11-13T00:45:38.394Z,940.3
2018-11-13T00:46:38.366Z,940.2
2018-11-13T00:47:38.319Z,940.3
2018-11-13T00:48:38.232Z,940.3
2018-11-13T00:49:38.136Z,940.2
2018-11-13T00:50:38.524Z,940.3
2018-11-13T00:51:38.478Z,939.9
2018-11-13T00:52:38.369Z,940
2018-11-13T00:53:38.715Z,940.2
2018-11-13T00:54:38.598Z,940.2
2018-11-13T00:55:38.528Z,940.3
2018-11-13T00:56:38.409Z,940.2
2018-11-13T00:57:38.301Z,940
2018-11-13T00:58:38.204Z,940
2018-11-13T00:59:38.115Z,940
2018-11-13T01:00:38.361Z,940.2
2018-11-13T01:01:38.283Z,940.2
2018-11-13T01:02:38.187Z,940.2
2018-11-13T01:03:38.535Z,940.2
2018-11-13T01:04:38.450Z,940.1
2018-11-13T01:05:38.684Z,940.2
2018-11-13T01:06:38.601Z,940.2
2018-11-13T01:07:38.890Z,940
2018-11-13T01:08:38.790Z,940.1
2018-11-13T01:09:38.685Z,940
2018-11-13T01:10:38.572Z,940.2
2018-11-13T01:11:38.713Z,940.2
2018-11-13T01:12:38.607Z,940
2018-11-13T01:13:39.152Z,940.1
2018-11-13T01:14:39.043Z,939.7
2018-11-13T01:15:38.929Z,939.9
2018-11-13T01:16:38.848Z,940.1
2018-11-13T01:17:38.736Z,940.1
2018-11-13T01:18:38.624Z,940.1
2018-11-13T01:19:38.527Z,940
2018-11-13T01:20:38.425Z,940.1
2018-11-13T01:21:38.339Z,940.2
2018-11-13T01:22:38.260Z,940.1
2018-11-13T01:23:38.642Z,940.2
2018-11-13T01:24:38.556Z,940.2
2018-11-13T01:25:38.503Z,939.4
2018-11-13T01:26:38.420Z,940.2
2018-11-13T01:27:38.331Z,940.2
2018-11-13T01:28:38.226Z,940.2
2018-11-13T01:29:38.159Z,940.2
2018-11-13T01:30:38.048Z,940.1
2018-11-13T01:31:37.981Z,940.2
2018-11-13T01:32:37.883Z,940.2
2018-11-13T01:33:39.201Z,940.2
2018-11-13T01:34:39.088Z,940.1
2018-11-13T01:35:38.998Z,940.1
2018-11-13T01:36:38.915Z,940.1
2018-11-13T01:37:38.816Z,940.1
2018-11-13T01:38:38.729Z,940.1
2018-11-13T01:39:38.617Z,940.1
2018-11-13T01:40:38.522Z,940.1
2018-11-13T01:41:41.638Z,940.1
2018-11-13T01:42:41.619Z,940
2018-11-13T01:43:41.940Z,940
2018-11-13T01:44:41.895Z,940
2018-11-13T01:45:41.786Z,940.1
2018-11-13T01:46:41.688Z,940
2018-11-13T01:47:41.592Z,940.1
2018-11-13T01:48:41.527Z,940.1
2018-11-13T01:49:42.912Z,940
2018-11-13T01:50:42.826Z,940.1
2018-11-13T01:51:42.802Z,940.2
2018-11-13T01:52:42.702Z,940.1
2018-11-13T01:53:42.884Z,940.1
2018-11-13T01:54:42.605Z,940.2
2018-11-13T01:55:42.345Z,940.2
2018-11-13T01:56:42.084Z,940.2
2018-11-13T01:57:41.812Z,940.3
2018-11-13T01:58:41.584Z,940.1
2018-11-13T01:59:41.323Z,940.2
2018-11-13T02:00:41.054Z,940.2
2018-11-13T02:01:40.794Z,940.2
2018-11-13T02:02:40.527Z,940.2
2018-11-13T02:03:40.890Z,940.1
2018-11-13T02:04:40.800Z,940
2018-11-13T02:05:40.696Z,940.1
2018-11-13T02:06:40.581Z,940.1
2018-11-13T02:07:40.510Z,940
2018-11-13T02:08:40.423Z,940.1
2018-11-13T02:09:40.346Z,940.1
2018-11-13T02:10:40.248Z,940.1
2018-11-13T02:11:40.143Z,940.1
2018-11-13T02:12:40.052Z,940.2
2018-11-13T02:13:40.370Z,940.1
2018-11-13T02:14:40.264Z,940
2018-11-13T02:15:40.190Z,940.1
2018-11-13T02:16:40.083Z,940.1
2018-11-13T02:17:39.974Z,939.9
2018-11-13T02:18:39.903Z,940
2018-11-13T02:19:39.812Z,940.1
2018-11-13T02:20:39.742Z,940
2018-11-13T02:21:39.653Z,940
2018-11-13T02:22:39.538Z,940
2018-11-13T02:23:39.878Z,940
2018-11-13T02:24:39.782Z,940
2018-11-13T02:25:39.684Z,940
2018-11-13T02:26:39.590Z,940.1
2018-11-13T02:27:39.488Z,940
2018-11-13T02:28:39.374Z,940.1
2018-11-13T02:29:39.256Z,940.1
2018-11-13T02:30:39.178Z,940.1
2018-11-13T02:31:39.075Z,940
2018-11-13T02:32:38.962Z,939.9
2018-11-13T02:33:39.294Z,940
2018-11-13T02:34:39.194Z,939.9
2018-11-13T02:35:40.033Z,939.9
2018-11-13T02:36:40.021Z,939.8
2018-11-13T02:37:39.914Z,939.8
2018-11-13T02:38:39.796Z,939.8
2018-11-13T02:39:39.763Z,939.9
2018-11-13T02:40:39.676Z,939.9
2018-11-13T02:41:39.602Z,939.9
2018-11-13T02:42:39.515Z,939.7
2018-11-13T02:43:39.694Z,939.8
2018-11-13T02:44:39.432Z,939.7
2018-11-13T02:45:39.162Z,939.8
2018-11-13T02:46:38.915Z,939.8
2018-11-13T02:47:38.653Z,939.8
2018-11-13T02:48:38.425Z,939.8
2018-11-13T02:49:38.169Z,939.9
2018-11-13T02:50:38.168Z,939.8
2018-11-13T02:51:40.929Z,939.7
2018-11-13T02:52:41.265Z,939.8
2018-11-13T02:53:41.613Z,939.8
2018-11-13T02:54:41.508Z,939.7
2018-11-13T02:55:41.407Z,939.7
2018-11-13T02:56:41.309Z,939.7
2018-11-13T02:57:41.206Z,939.8
2018-11-13T02:58:41.143Z,939.6
2018-11-13T02:59:41.036Z,939.7
2018-11-13T03:00:40.932Z,939.8
2018-11-13T03:01:40.842Z,939.8
2018-11-13T03:02:40.760Z,939.7
2018-11-13T03:03:41.100Z,939.7
2018-11-13T03:04:40.993Z,939.6
2018-11-13T03:05:40.883Z,939.8
2018-11-13T03:06:40.791Z,939.8
2018-11-13T03:07:40.724Z,939.7
2018-11-13T03:08:40.633Z,939.9
2018-11-13T03:09:40.556Z,939.9
2018-11-13T03:10:40.494Z,939.9
2018-11-13T03:11:40.419Z,939.9
2018-11-13T03:12:40.328Z,939.9
2018-11-13T03:13:41.418Z,939.8
2018-11-13T03:14:41.413Z,939.8
2018-11-13T03:15:41.341Z,939.8
2018-11-13T03:16:41.278Z,939.6
2018-11-13T03:17:41.184Z,939.7
2018-11-13T03:18:41.080Z,939.8
2018-11-13T03:19:40.976Z,939.8
2018-11-13T03:20:40.877Z,939.8
2018-11-13T03:21:40.794Z,939.8
2018-11-13T03:22:40.704Z,939.8
2018-11-13T03:23:41.036Z,939.8
2018-11-13T03:24:41.773Z,939.8
2018-11-13T03:25:41.500Z,939.7
2018-11-13T03:26:41.246Z,939.8
2018-11-13T03:27:40.989Z,939.7
2018-11-13T03:28:40.731Z,939.7
2018-11-13T03:29:40.465Z,939.7
2018-11-13T03:30:40.211Z,939.8
2018-11-13T03:31:40.725Z,939.7
2018-11-13T03:32:40.584Z,939.6
2018-11-13T03:33:40.787Z,939.6
2018-11-13T03:34:40.540Z,939.8
2018-11-13T03:35:40.279Z,939.8
2018-11-13T03:36:40.040Z,939.8
2018-11-13T03:37:39.772Z,939.8
2018-11-13T03:38:39.516Z,938.9
2018-11-13T03:39:39.250Z,939.8
2018-11-13T03:40:38.981Z,939.6
2018-11-13T03:41:38.743Z,939.8
2018-11-13T03:42:38.485Z,939.7
2018-11-13T03:43:38.825Z,939.7
2018-11-13T03:44:38.719Z,939.7
2018-11-13T03:45:38.634Z,939.8
2018-11-13T03:46:38.563Z,939.8
2018-11-13T03:47:38.456Z,939.7
2018-11-13T03:48:38.360Z,939.2
2018-11-13T03:49:38.266Z,939.8
2018-11-13T03:50:38.168Z,939.8
2018-11-13T03:51:38.081Z,939.7
2018-11-13T03:52:37.999Z,939.8
2018-11-13T03:53:38.345Z,939.9
2018-11-13T03:54:38.235Z,939.9
2018-11-13T03:55:38.154Z,939.9
2018-11-13T03:56:38.071Z,939.8
2018-11-13T03:57:37.989Z,939.7
2018-11-13T03:58:37.880Z,939.9
2018-11-13T03:59:37.797Z,939.9
2018-11-13T04:00:37.689Z,939.9
2018-11-13T04:01:37.609Z,940
2018-11-13T04:02:37.519Z,940
2018-11-13T04:03:37.841Z,940
2018-11-13T04:04:37.740Z,940
2018-11-13T04:05:37.860Z,940
2018-11-13T04:06:37.780Z,940
2018-11-13T04:07:37.707Z,940
2018-11-13T04:08:37.604Z,940.1
2018-11-13T04:09:37.483Z,940.2
2018-11-13T04:10:37.385Z,940.1
2018-11-13T04:11:37.283Z,940.2
2018-11-13T04:12:37.174Z,940.2
2018-11-13T04:13:37.503Z,940
2018-11-13T04:14:37.398Z,939.9
2018-11-13T04:15:37.301Z,940.2
2018-11-13T04:16:37.271Z,940.2
2018-11-13T04:17:37.221Z,940.2
2018-11-13T04:18:37.140Z,940.4
2018-11-13T04:19:37.050Z,940.3
2018-11-13T04:20:37.955Z,940.4
2018-11-13T04:21:37.887Z,940.5
2018-11-13T04:22:37.814Z,940.4
2018-11-13T04:23:38.156Z,940.3
2018-11-13T04:24:41.196Z,940.3
2018-11-13T04:25:41.088Z,940.5
2018-11-13T04:26:41.000Z,940.5
2018-11-13T04:27:40.996Z,940.5
2018-11-13T04:28:40.908Z,940.5
2018-11-13T04:29:40.806Z,940.5
2018-11-13T04:30:41.343Z,940.5
2018-11-13T04:31:41.364Z,940.5
2018-11-13T04:32:41.270Z,940.5
2018-11-13T04:33:41.637Z,940.5
2018-11-13T04:34:41.543Z,940.4
2018-11-13T04:35:41.465Z,940.5
2018-11-13T04:36:41.378Z,940.5
2018-11-13T04:37:41.281Z,940.5
2018-11-13T04:38:41.197Z,940.5
2018-11-13T04:39:41.128Z,940.7
2018-11-13T04:40:41.042Z,940.5
2018-11-13T04:41:40.961Z,940.5
2018-11-13T04:42:40.864Z,940.7
2018-11-13T04:43:41.234Z,940.6
2018-11-13T04:44:41.124Z,940.7
2018-11-13T04:45:41.037Z,940.7
2018-11-13T04:46:40.968Z,940.7
2018-11-13T04:47:40.880Z,940.6
2018-11-13T04:48:40.786Z,940.6
2018-11-13T04:49:40.673Z,940.7
2018-11-13T04:50:40.572Z,940.8
2018-11-13T04:51:41.371Z,940.8
2018-11-13T04:52:41.299Z,940.7
2018-11-13T04:53:41.647Z,940.9
2018-11-13T04:54:41.559Z,940.8
2018-11-13T04:55:41.464Z,940.8
2018-11-13T04:56:41.376Z,940.9
2018-11-13T04:57:41.267Z,939.5
2018-11-13T04:58:41.141Z,941
2018-11-13T04:59:41.037Z,941
2018-11-13T05:00:40.940Z,941.2
2018-11-13T05:01:40.852Z,941.1
2018-11-13T05:02:41.235Z,941.1
2018-11-13T05:03:41.692Z,941
2018-11-13T05:04:41.444Z,941
2018-11-13T05:05:41.175Z,941.2
2018-11-13T05:06:40.920Z,940.2
2018-11-13T05:07:40.661Z,941.2
2018-11-13T05:08:40.393Z,941.3
2018-11-13T05:09:40.133Z,941.2
2018-11-13T05:10:39.870Z,941.3
2018-11-13T05:11:39.629Z,941.3
2018-11-13T05:12:39.367Z,941.3
2018-11-13T05:13:39.728Z,941.2
2018-11-13T05:14:39.642Z,940.2
2018-11-13T05:15:39.562Z,941
2018-11-13T05:16:39.487Z,941.3
2018-11-13T05:17:39.400Z,941.3
2018-11-13T05:18:39.289Z,941.3
2018-11-13T05:19:39.212Z,941.4
2018-11-13T05:20:39.115Z,941.4
2018-11-13T05:21:39.044Z,941.4
2018-11-13T05:22:38.953Z,941.4
2018-11-13T05:23:39.727Z,941.6
2018-11-13T05:24:39.633Z,941.4
2018-11-13T05:25:39.529Z,941.6
2018-11-13T05:26:39.443Z,941.5
2018-11-13T05:27:39.353Z,941.5
2018-11-13T05:28:39.252Z,941.5
2018-11-13T05:29:39.161Z,941.5
2018-11-13T05:30:39.061Z,941.4
2018-11-13T05:31:38.963Z,941.5
2018-11-13T05:32:39.116Z,941.5
2018-11-13T05:33:40.451Z,941.6
2018-11-13T05:34:40.342Z,941.5
2018-11-13T05:35:40.234Z,941.5
2018-11-13T05:36:40.149Z,941.6
2018-11-13T05:37:40.321Z,941.6
2018-11-13T05:38:40.211Z,941.6
2018-11-13T05:39:40.107Z,941.4
2018-11-13T05:40:39.988Z,941.7
2018-11-13T05:41:40.576Z,941.7
2018-11-13T05:42:40.503Z,941.7
2018-11-13T05:43:40.873Z,941.8
2018-11-13T05:44:40.774Z,941.1
2018-11-13T05:45:40.674Z,941.8
2018-11-13T05:46:40.583Z,941.8
2018-11-13T05:47:40.509Z,941.8
2018-11-13T05:48:40.417Z,941.8
2018-11-13T05:49:40.323Z,941.8
2018-11-13T05:50:40.221Z,941.9
2018-11-13T05:51:40.121Z,941.9
2018-11-13T05:52:40.058Z,941.9
2018-11-13T05:53:40.264Z,941.9
2018-11-13T05:54:39.995Z,941.8
2018-11-13T05:55:39.760Z,942
2018-11-13T05:56:39.494Z,942
2018-11-13T05:57:39.230Z,942
2018-11-13T05:58:38.997Z,941.9
2018-11-13T05:59:38.895Z,942
2018-11-13T06:00:38.624Z,940.9
2018-11-13T06:01:38.351Z,942
2018-11-13T06:02:38.088Z,942
2018-11-13T06:03:38.269Z,942
2018-11-13T06:04:37.987Z,942
2018-11-13T06:05:37.723Z,941.9
2018-11-13T06:06:37.455Z,942
2018-11-13T06:07:37.204Z,942.1
2018-11-13T06:08:37.557Z,942.1
2018-11-13T06:09:37.362Z,942.1
2018-11-13T06:10:37.109Z,942.1
2018-11-13T06:11:36.842Z,942
2018-11-13T06:12:36.600Z,942.1
2018-11-13T06:13:36.954Z,942
2018-11-13T06:14:36.843Z,942.2
2018-11-13T06:15:36.741Z,942.3
2018-11-13T06:16:36.642Z,942.3
2018-11-13T06:17:36.562Z,942.2
2018-11-13T06:18:36.714Z,942.3
2018-11-13T06:19:36.628Z,942.3
2018-11-13T06:20:36.537Z,942.3
2018-11-13T06:21:36.438Z,942.4
2018-11-13T06:22:36.345Z,942.5
2018-11-13T06:23:37.204Z,942.4
2018-11-13T06:24:37.109Z,942.5
2018-11-13T06:25:37.017Z,942.5
2018-11-13T06:26:36.933Z,942.5
2018-11-13T06:27:36.819Z,942.5
2018-11-13T06:28:36.734Z,942.6
2018-11-13T06:29:37.303Z,942.6
2018-11-13T06:30:37.213Z,942.6
2018-11-13T06:31:37.106Z,942.7
2018-11-13T06:32:37.016Z,942.6
2018-11-13T06:33:37.368Z,942.7
2018-11-13T06:34:37.286Z,942.7
2018-11-13T06:35:37.202Z,942.6
2018-11-13T06:36:37.115Z,942.6
2018-11-13T06:37:37.053Z,942.9
2018-11-13T06:38:37.127Z,942.8
2018-11-13T06:39:37.037Z,942.9
2018-11-13T06:40:36.945Z,942
2018-11-13T06:41:36.839Z,942.7
2018-11-13T06:42:36.753Z,942.8
2018-11-13T06:43:37.102Z,942.9
2018-11-13T06:44:37.024Z,942.9
2018-11-13T06:45:36.918Z,942.9
2018-11-13T06:46:36.795Z,942.8
2018-11-13T06:47:36.711Z,943
2018-11-13T06:48:39.950Z,942.9
2018-11-13T06:49:40.935Z,942.9
2018-11-13T06:50:40.892Z,942.8
2018-11-13T06:51:40.797Z,942.9
2018-11-13T06:52:40.696Z,942.9
2018-11-13T06:53:41.064Z,942.9
2018-11-13T06:54:40.954Z,942.9
2018-11-13T06:55:40.852Z,943
2018-11-13T06:56:40.777Z,943
2018-11-13T06:57:40.690Z,943.1
2018-11-13T06:58:40.599Z,943.1
2018-11-13T06:59:43.404Z,943
2018-11-13T07:00:43.330Z,942.8
2018-11-13T07:01:43.230Z,941.6
2018-11-13T07:02:43.176Z,943.1
2018-11-13T07:03:43.538Z,943
2018-11-13T07:04:43.477Z,943.2
2018-11-13T07:05:43.372Z,943.2
2018-11-13T07:06:43.257Z,943.1
2018-11-13T07:07:43.165Z,942.3
2018-11-13T07:08:43.088Z,943.3
2018-11-13T07:09:42.993Z,943.2
2018-11-13T07:10:43.503Z,943.4
2018-11-13T07:11:43.460Z,943.3
2018-11-13T07:12:43.381Z,943.3
2018-11-13T07:13:43.723Z,943.3
2018-11-13T07:14:43.447Z,943.3
2018-11-13T07:15:43.192Z,943.4
2018-11-13T07:16:42.930Z,943.1
2018-11-13T07:17:42.696Z,943.4
2018-11-13T07:18:42.433Z,943.1
2018-11-13T07:19:42.174Z,943.4
2018-11-13T07:20:41.943Z,943.4
2018-11-13T07:21:41.684Z,943.4
2018-11-13T07:22:41.414Z,943.3
2018-11-13T07:23:41.581Z,943.4
2018-11-13T07:24:41.312Z,943.4
2018-11-13T07:25:41.079Z,943.4
2018-11-13T07:26:40.832Z,943.3
2018-11-13T07:27:41.470Z,943.5
2018-11-13T07:28:41.305Z,943.5
2018-11-13T07:29:41.039Z,943.5
2018-11-13T07:30:40.782Z,943.5
2018-11-13T07:31:40.538Z,943.5
2018-11-13T07:32:40.262Z,942.6
2018-11-13T07:33:41.161Z,943.2
2018-11-13T07:34:41.151Z,943.5
2018-11-13T07:35:41.048Z,943.6
2018-11-13T07:36:40.961Z,943.6
2018-11-13T07:37:40.866Z,943.5
2018-11-13T07:38:40.769Z,943.5
2018-11-13T07:39:40.675Z,943.6
2018-11-13T07:40:40.584Z,943.6
2018-11-13T07:41:40.478Z,943.5
2018-11-13T07:42:40.394Z,943.6
2018-11-13T07:43:40.740Z,943.4
2018-11-13T07:44:40.640Z,943.5
2018-11-13T07:45:40.544Z,943.5
2018-11-13T07:46:40.935Z,943.6
2018-11-13T07:47:42.812Z,943.6
2018-11-13T07:48:42.881Z,943.7
2018-11-13T07:49:42.780Z,943.6
2018-11-13T07:50:42.668Z,943.7
2018-11-13T07:51:45.294Z,943.6
2018-11-13T07:52:45.210Z,943.7
2018-11-13T07:53:45.867Z,943.8
2018-11-13T07:54:45.947Z,943.7
2018-11-13T07:55:45.831Z,943.6
2018-11-13T07:56:45.731Z,943.6
2018-11-13T07:57:45.630Z,943.7
2018-11-13T07:58:45.544Z,943.6
2018-11-13T07:59:45.447Z,943.6
2018-11-13T08:00:45.334Z,943.8
2018-11-13T08:01:45.224Z,943.8
2018-11-13T08:02:45.118Z,943.8
2018-11-13T08:03:46.251Z,943.5
2018-11-13T08:04:46.248Z,943.7
2018-11-13T08:05:46.787Z,943.8
2018-11-13T08:06:47.639Z,943.8
2018-11-13T08:07:47.658Z,943.7
2018-11-13T08:08:47.591Z,943.9
2018-11-13T08:09:47.478Z,943.9
2018-11-13T08:10:47.370Z,943.8
2018-11-13T08:11:47.261Z,943.9
2018-11-13T08:12:48.209Z,943.8
2018-11-13T08:13:50.120Z,943.9
2018-11-13T08:14:50.030Z,943.9
2018-11-13T08:15:49.938Z,943.9
2018-11-13T08:16:49.830Z,943.9
2018-11-13T08:17:49.736Z,943.8
2018-11-13T08:18:50.110Z,943.9
2018-11-13T08:19:50.102Z,944
2018-11-13T08:20:50.014Z,943.8
2018-11-13T08:21:50.047Z,944
2018-11-13T08:22:49.960Z,944
2018-11-13T08:23:50.303Z,944
2018-11-13T08:24:50.197Z,944
2018-11-13T08:25:50.130Z,944
2018-11-13T08:26:50.279Z,944.1
2018-11-13T08:27:50.220Z,944.1
2018-11-13T08:28:50.949Z,944.1
2018-11-13T08:29:50.876Z,944
2018-11-13T08:30:50.797Z,943.8
2018-11-13T08:31:50.721Z,944.2
2018-11-13T08:32:50.641Z,944.1
2018-11-13T08:33:53.945Z,944.2
2018-11-13T08:34:54.297Z,944.2
2018-11-13T08:35:54.221Z,944.1
2018-11-13T08:36:54.125Z,944
2018-11-13T08:37:54.059Z,944.1
2018-11-13T08:38:53.937Z,944.1
2018-11-13T08:39:53.849Z,944.2
2018-11-13T08:40:53.794Z,944.2
2018-11-13T08:41:53.706Z,944.2
2018-11-13T08:42:53.605Z,944.2
2018-11-13T08:43:54.122Z,944.2
2018-11-13T08:44:54.024Z,944.2
2018-11-13T08:45:53.972Z,944.3
2018-11-13T08:46:53.860Z,944.2
2018-11-13T08:47:53.745Z,944.3
2018-11-13T08:48:53.682Z,944.3
2018-11-13T08:49:53.597Z,944.2
2018-11-13T08:50:53.924Z,944.1
2018-11-13T08:51:53.887Z,944.2
2018-11-13T08:52:53.806Z,944.1
2018-11-13T08:53:54.163Z,944.2
2018-11-13T08:54:54.074Z,944.2
2018-11-13T08:55:53.994Z,944.3
2018-11-13T08:56:53.926Z,944.3
2018-11-13T08:57:53.862Z,944.2
2018-11-13T08:58:54.665Z,944.3
2018-11-13T08:59:54.703Z,944.2
2018-11-13T09:00:54.608Z,944.2
2018-11-13T09:01:54.537Z,944.2
2018-11-13T09:02:54.445Z,944.2
2018-11-13T09:03:54.785Z,944.3
2018-11-13T09:04:54.641Z,944.3
2018-11-13T09:05:54.385Z,944.3
2018-11-13T09:06:54.123Z,944.4
2018-11-13T09:07:53.853Z,944.4
2018-11-13T09:08:53.582Z,944.4
2018-11-13T09:09:53.305Z,944.4
2018-11-13T09:10:53.039Z,944.4
2018-11-13T09:11:53.530Z,944.3
2018-11-13T09:12:53.458Z,944.4
2018-11-13T09:13:53.817Z,944.4
2018-11-13T09:14:53.707Z,944.5
2018-11-13T09:15:53.604Z,944.5
2018-11-13T09:16:53.570Z,944.4
2018-11-13T09:17:53.792Z,944.5
2018-11-13T09:18:54.460Z,944.5
2018-11-13T09:19:54.453Z,944.5
2018-11-13T09:20:54.355Z,944.5
2018-11-13T09:21:54.935Z,944.5
2018-11-13T09:22:55.316Z,944.5
2018-11-13T09:23:55.821Z,944.5
2018-11-13T09:24:55.707Z,944.5
2018-11-13T09:25:55.605Z,944.6
2018-11-13T09:26:55.519Z,944.5
2018-11-13T09:27:55.466Z,944.6
2018-11-13T09:28:55.372Z,944.5
2018-11-13T09:29:56.188Z,943.2
2018-11-13T09:30:59.059Z,944.6
2018-11-13T09:31:59.608Z,944.5
2018-11-13T09:32:59.928Z,944.6
2018-11-13T09:34:00.671Z,944.6
2018-11-13T09:35:00.768Z,944.7
2018-11-13T09:36:00.517Z,944.5
2018-11-13T09:37:00.278Z,944.7
2018-11-13T09:38:00.016Z,944.5
2018-11-13T09:38:59.751Z,944.4
2018-11-13T09:39:59.491Z,944.6
2018-11-13T09:40:59.233Z,944.7
2018-11-13T09:41:58.984Z,944.6
2018-11-13T09:42:58.802Z,944.6
2018-11-13T09:43:59.147Z,944.6
2018-11-13T09:44:59.986Z,944.6
2018-11-13T09:46:00.969Z,944.7
2018-11-13T09:47:00.997Z,944.7
2018-11-13T09:48:00.916Z,944.6
2018-11-13T09:49:00.817Z,944.7
2018-11-13T09:50:00.749Z,944.5
2018-11-13T09:51:00.659Z,944.7
2018-11-13T09:52:00.623Z,944.7
2018-11-13T09:53:00.534Z,944.7
2018-11-13T09:54:01.443Z,944.6
2018-11-13T09:55:01.353Z,944.7
2018-11-13T09:56:01.260Z,944.6
2018-11-13T09:57:01.167Z,944.6
2018-11-13T09:58:01.086Z,944.7
2018-11-13T09:59:01.597Z,944.6
2018-11-13T10:00:02.317Z,944.7
2018-11-13T10:01:05.129Z,944.7
2018-11-13T10:02:10.148Z,944.6
2018-11-13T10:03:16.443Z,944.7
2018-11-13T10:04:29.323Z,944.7
2018-11-13T10:05:30.966Z,944.6
2018-11-13T10:06:31.016Z,944.6
2018-11-13T10:07:30.926Z,944.6
2018-11-13T10:08:30.690Z,944.6
2018-11-13T10:09:30.438Z,944.7
2018-11-13T10:10:30.426Z,944.7
2018-11-13T10:11:30.197Z,944.7
2018-11-13T10:12:29.935Z,944.6
2018-11-13T10:13:29.835Z,944.7
2018-11-13T10:14:30.162Z,944.6
2018-11-13T10:15:30.061Z,944.7
2018-11-13T10:16:29.988Z,944.7
2018-11-13T10:17:30.329Z,944.7
2018-11-13T10:18:30.440Z,944.6
2018-11-13T10:19:30.353Z,944.7
2018-11-13T10:20:30.272Z,944.7
2018-11-13T10:21:30.189Z,944.8
2018-11-13T10:22:30.086Z,944.8
2018-11-13T10:23:29.977Z,944.8
2018-11-13T10:24:30.312Z,944.8
2018-11-13T10:25:30.243Z,944.7
2018-11-13T10:26:31.083Z,944.8
2018-11-13T10:27:31.060Z,944.7
2018-11-13T10:28:30.970Z,944.9
2018-11-13T10:29:30.885Z,944.8
2018-11-13T10:30:30.866Z,944.8
2018-11-13T10:31:30.790Z,944.8
2018-11-13T10:32:30.682Z,944.9
2018-11-13T10:33:30.579Z,944.8
2018-11-13T10:34:30.906Z,944.9
2018-11-13T10:35:30.804Z,944.9
2018-11-13T10:36:30.738Z,944.9
2018-11-13T10:37:30.905Z,943.6
2018-11-13T10:38:30.813Z,944.9
2018-11-13T10:39:30.716Z,944.8
2018-11-13T10:40:32.204Z,944.9
2018-11-13T10:41:33.059Z,944.9
2018-11-13T10:42:33.026Z,944.9
2018-11-13T10:43:32.925Z,944.9
2018-11-13T10:44:33.274Z,944.8
2018-11-13T10:45:33.184Z,944.9
2018-11-13T10:46:33.114Z,945
2018-11-13T10:47:35.602Z,945
2018-11-13T10:48:35.512Z,945
2018-11-13T10:49:35.423Z,945
2018-11-13T10:50:35.347Z,945.1
2018-11-13T10:51:35.260Z,945
2018-11-13T10:52:35.163Z,945
2018-11-13T10:53:35.062Z,945.2
2018-11-13T10:54:35.430Z,945.2
2018-11-13T10:55:35.349Z,945.2
2018-11-13T10:56:37.136Z,945.3
2018-11-13T10:57:37.077Z,945.3
2018-11-13T10:58:36.978Z,945.3
2018-11-13T10:59:36.902Z,945.4
2018-11-13T11:00:36.796Z,945.5
2018-11-13T11:01:36.724Z,945.4
2018-11-13T11:02:38.040Z,945.5
2018-11-13T11:03:38.065Z,945.5
2018-11-13T11:04:38.394Z,945.6
2018-11-13T11:05:38.308Z,945.6
2018-11-13T11:06:38.215Z,945.6
2018-11-13T11:07:38.113Z,945.6
2018-11-13T11:08:38.298Z,945.5
2018-11-13T11:09:38.265Z,945.6
2018-11-13T11:10:38.193Z,945.7
2018-11-13T11:11:38.110Z,945.6
2018-11-13T11:12:38.009Z,945.7
2018-11-13T11:13:39.295Z,945.8
2018-11-13T11:14:40.182Z,945.7
2018-11-13T11:15:40.094Z,945.7
2018-11-13T11:16:40.031Z,945.7
2018-11-13T11:17:39.932Z,945.7
2018-11-13T11:18:40.537Z,945.6
2018-11-13T11:19:40.469Z,945.6
2018-11-13T11:20:40.368Z,945.7
2018-11-13T11:21:40.277Z,945.8
2018-11-13T11:22:40.804Z,945.9
2018-11-13T11:23:41.914Z,945.9
2018-11-13T11:24:43.340Z,945.9
2018-11-13T11:25:43.260Z,946
2018-11-13T11:26:43.167Z,946
2018-11-13T11:27:43.331Z,945.8
2018-11-13T11:28:43.251Z,945.9
2018-11-13T11:29:43.153Z,946
2018-11-13T11:30:43.087Z,946.1
2018-11-13T11:31:42.985Z,946
2018-11-13T11:32:42.978Z,946
2018-11-13T11:33:42.907Z,946
2018-11-13T11:34:43.245Z,946
2018-11-13T11:35:46.162Z,946.2
2018-11-13T11:36:46.103Z,946.1
2018-11-13T11:37:46.024Z,946.2
2018-11-13T11:38:46.796Z,946
2018-11-13T11:39:46.787Z,946.2
2018-11-13T11:40:46.701Z,946.2
2018-11-13T11:41:46.605Z,946.2
2018-11-13T11:42:46.531Z,946.2
2018-11-13T11:43:46.437Z,946.2
2018-11-13T11:44:47.091Z,946.1
2018-11-13T11:45:47.009Z,946.2
2018-11-13T11:46:46.912Z,945.3
2018-11-13T11:47:46.851Z,946.2
2018-11-13T11:48:46.773Z,946.3
2018-11-13T11:49:46.678Z,946.4
2018-11-13T11:50:46.587Z,946.3
2018-11-13T11:51:46.485Z,946.4
2018-11-13T11:52:46.397Z,946.3
2018-11-13T11:53:46.813Z,946.5
2018-11-13T11:54:47.312Z,946.5
2018-11-13T11:55:47.243Z,946.5
2018-11-13T11:56:47.151Z,946.5
2018-11-13T11:57:47.061Z,946.5
2018-11-13T11:58:46.999Z,946.5
2018-11-13T11:59:46.923Z,946.5
2018-11-13T12:00:47.706Z,946.5
2018-11-13T12:01:47.672Z,946.6
2018-11-13T12:02:47.593Z,946.6
2018-11-13T12:03:47.499Z,946.6
2018-11-13T12:04:48.177Z,946.6
2018-11-13T12:05:48.095Z,946.6
2018-11-13T12:06:47.821Z,946.6
2018-11-13T12:07:47.564Z,946.6
2018-11-13T12:08:47.284Z,946.7
2018-11-13T12:09:47.023Z,946.7
2018-11-13T12:10:46.786Z,946.7
2018-11-13T12:11:46.521Z,946.7
2018-11-13T12:12:46.290Z,946.8
2018-11-13T12:13:46.036Z,946.8
2018-11-13T12:14:46.721Z,946.8
2018-11-13T12:15:46.472Z,946.8
2018-11-13T12:16:46.211Z,946.8
2018-11-13T12:17:45.968Z,946.9
2018-11-13T12:18:46.019Z,946.8
2018-11-13T12:19:45.782Z,946.9
2018-11-13T12:20:52.393Z,947
2018-11-13T12:21:52.155Z,946.9
2018-11-13T12:22:52.113Z,946.9
2018-11-13T12:23:53.493Z,946.8
2018-11-13T12:24:53.661Z,947.1
2018-11-13T12:25:54.192Z,947
2018-11-13T12:26:54.247Z,947
2018-11-13T12:27:54.001Z,947
2018-11-13T12:28:53.773Z,947.1
2018-11-13T12:29:53.511Z,947.1
2018-11-13T12:30:53.264Z,947.1
2018-11-13T12:31:53.008Z,947.1
2018-11-13T12:32:52.752Z,947.1
2018-11-13T12:33:52.479Z,947.1
2018-11-13T12:34:52.926Z,947.1
2018-11-13T12:35:52.848Z,947.2
2018-11-13T12:36:52.759Z,947.2
2018-11-13T12:37:52.679Z,947
2018-11-13T12:38:52.586Z,947
2018-11-13T12:39:52.481Z,947
2018-11-13T12:40:52.921Z,947.1
2018-11-13T12:41:52.885Z,947.2
2018-11-13T12:42:52.795Z,947.2
2018-11-13T12:43:52.711Z,947.1
2018-11-13T12:44:53.067Z,947.2
2018-11-13T12:45:52.969Z,947.3
2018-11-13T12:46:53.182Z,947.2
2018-11-13T12:47:53.105Z,947.2
2018-11-13T12:48:53.939Z,947.2
2018-11-13T12:49:53.975Z,947.1
2018-11-13T12:50:53.894Z,947
2018-11-13T12:51:53.793Z,947
2018-11-13T12:52:53.710Z,947.1
2018-11-13T12:53:53.617Z,945.8
2018-11-13T12:54:53.973Z,947.2
2018-11-13T12:55:54.369Z,947.1
2018-11-13T12:56:54.210Z,947.3
2018-11-13T12:57:53.952Z,947.2
2018-11-13T12:58:53.707Z,947.3
2018-11-13T12:59:53.444Z,947.1